Time;durP1;ratioP1;P1;durP2;ratioP2;P2;SDS_P1;SDS_P2;PMS_P1;PMS_P2;Temp;Humidity;BMP_temperature;BMP_pressure;BME280_temperature;BME280_humidity;BME280_pressure;Samples;Min_cycle;Max_cycle;Signal;HPM_P1;HPM_P2
2023/10/28 00:01:43;;;;;;;15.73;9.45;;;;;;;14.94;76.89;99291.19;4952085;28;99100;-79
2023/10/28 00:04:09;;;;;;;15.57;9.30;;;;;;;14.99;77.03;99294.31;4952361;28;98055;-80
2023/10/28 00:06:36;;;;;;;13.27;9.02;;;;;;;14.98;77.11;99297.94;4959430;28;96766;-79
2023/10/28 00:09:03;;;;;;;15.80;10.20;;;;;;;15.00;76.83;99296.03;4956064;28;97873;-79
2023/10/28 00:11:31;;;;;;;13.13;8.85;;;;;;;15.04;76.57;99298.31;4952544;28;99218;-78
2023/10/28 00:13:58;;;;;;;15.18;9.63;;;;;;;15.12;77.27;99295.09;4952243;28;98824;-78
2023/10/28 00:16:25;;;;;;;16.30;9.30;;;;;;;15.08;76.83;99299.81;4952457;28;97104;-78
2023/10/28 00:18:52;;;;;;;13.45;9.50;;;;;;;15.13;76.77;99304.75;4951933;28;96754;-78
2023/10/28 00:21:20;;;;;;;17.05;9.68;;;;;;;15.23;75.79;99302.25;4952436;28;102058;-78
2023/10/28 00:23:47;;;;;;;15.18;10.05;;;;;;;15.19;76.85;99293.66;4949888;28;99525;-78
2023/10/28 00:26:14;;;;;;;16.20;10.32;;;;;;;15.27;76.36;99301.03;4951826;28;96793;-78
2023/10/28 00:28:40;;;;;;;15.80;10.25;;;;;;;15.11;76.52;99299.56;4956641;28;96812;-79
2023/10/28 00:31:07;;;;;;;15.82;9.85;;;;;;;15.29;76.21;99297.31;4950471;28;99582;-78
2023/10/28 00:33:35;;;;;;;14.80;10.00;;;;;;;15.08;76.69;99297.16;4952260;28;100126;-78
2023/10/28 00:36:06;;;;;;;15.05;10.30;;;;;;;15.35;76.23;99299.50;4951652;28;96743;-77
2023/10/28 00:38:33;;;;;;;13.77;9.48;;;;;;;15.38;75.72;99295.72;4951539;28;96696;-77
2023/10/28 00:40:59;;;;;;;14.88;9.30;;;;;;;15.41;74.90;99307.00;4951372;28;98959;-78
2023/10/28 00:43:25;;;;;;;11.13;8.35;;;;;;;15.37;75.01;99305.53;4947198;28;99194;-77
2023/10/28 00:45:54;;;;;;;11.90;7.57;;;;;;;15.26;75.61;99302.84;4951525;28;97170;-77
2023/10/28 00:48:20;;;;;;;11.52;7.13;;;;;;;15.00;76.70;99306.66;4954284;28;96915;-76
2023/10/28 00:50:48;;;;;;;13.98;7.60;;;;;;;15.23;76.98;99310.25;4948413;28;98884;-77
2023/10/28 00:53:17;;;;;;;12.13;7.50;;;;;;;15.20;76.64;99310.47;4950735;28;98116;-76
2023/10/28 00:55:43;;;;;;;12.05;8.07;;;;;;;15.23;76.02;99305.72;4949151;28;96767;-77
2023/10/28 00:58:10;;;;;;;10.93;7.40;;;;;;;15.40;75.51;99302.63;4951444;28;96756;-77
2023/10/28 01:00:36;;;;;;;11.55;7.53;;;;;;;15.60;74.75;99300.25;4951563;28;98869;-77
2023/10/28 01:03:03;;;;;;;14.38;7.10;;;;;;;15.46;75.60;99301.31;4954575;28;98876;-77
2023/10/28 01:05:30;;;;;;;13.00;8.02;;;;;;;15.50;75.20;99308.91;4951860;28;96753;-77
2023/10/28 01:07:58;;;;;;;18.08;8.68;;;;;;;15.73;74.58;99303.63;4950498;28;97342;-77
2023/10/28 01:10:27;;;;;;;14.60;8.88;;;;;;;15.80;74.02;99312.84;4951600;28;97891;-77
2023/10/28 01:12:54;;;;;;;13.90;8.68;;;;;;;15.72;74.09;99305.44;4951824;28;98928;-77
2023/10/28 01:15:20;;;;;;;11.80;8.65;;;;;;;15.60;74.65;99301.09;4949722;28;96799;-77
2023/10/28 01:17:48;;;;;;;13.10;8.55;;;;;;;15.28;75.29;99303.59;4948539;28;97178;-77
2023/10/28 01:20:14;;;;;;;14.77;8.63;;;;;;;15.31;75.93;99303.34;4950700;28;99585;-77
2023/10/28 01:22:42;;;;;;;11.60;8.40;;;;;;;15.47;75.59;99306.50;4950911;28;99376;-77
2023/10/28 01:25:09;;;;;;;12.95;8.75;;;;;;;15.38;76.17;99301.91;4949181;28;97030;-77
2023/10/28 01:27:35;;;;;;;12.35;8.80;;;;;;;15.31;76.08;99307.81;4952608;28;97073;-77
2023/10/28 01:30:03;;;;;;;16.63;9.75;;;;;;;15.34;76.34;99303.13;4959033;28;99040;-77
2023/10/28 01:32:29;;;;;;;15.10;9.13;;;;;;;15.53;75.80;99299.88;4952949;28;98854;-77
2023/10/28 01:34:56;;;;;;;15.88;9.23;;;;;;;15.00;76.97;99301.34;4951417;28;96857;-77
2023/10/28 01:37:22;;;;;;;14.38;9.52;;;;;;;15.12;77.20;99303.06;4951339;28;97093;-77
2023/10/28 01:39:52;;;;;;;16.20;9.68;;;;;;;15.35;76.32;99301.31;4943272;28;99164;-77
2023/10/28 01:42:20;;;;;;;15.63;9.38;;;;;;;15.05;77.26;99300.03;4952922;28;97708;-77
2023/10/28 01:44:47;;;;;;;13.30;8.52;;;;;;;15.59;75.52;99293.22;4953425;28;96780;-77
2023/10/28 01:47:14;;;;;;;13.43;8.40;;;;;;;15.49;75.65;99293.91;4953719;28;96801;-77
2023/10/28 01:49:42;;;;;;;11.35;8.00;;;;;;;15.55;74.89;99289.97;4955484;28;98925;-78
2023/10/28 01:52:10;;;;;;;10.57;7.78;;;;;;;15.64;74.94;99293.72;4951511;28;99474;-77
2023/10/28 01:54:37;;;;;;;11.45;7.55;;;;;;;15.68;74.01;99297.84;4951109;28;96839;-77
2023/10/28 01:57:06;;;;;;;10.88;6.88;;;;;;;15.72;73.56;99297.47;4949789;28;96799;-77
2023/10/28 01:59:33;;;;;;;10.85;7.32;;;;;;;15.52;74.12;99288.38;4950640;28;98948;-77
2023/10/28 02:02:01;;;;;;;8.77;6.18;;;;;;;15.61;73.61;99296.63;4950755;28;99239;-78
2023/10/28 02:04:28;;;;;;;9.70;7.20;;;;;;;15.28;75.60;99292.94;4950733;28;97863;-78
2023/10/28 02:06:54;;;;;;;9.48;6.55;;;;;;;15.66;74.68;99299.75;4950568;28;96889;-78
2023/10/28 02:09:21;;;;;;;8.27;6.18;;;;;;;15.59;74.83;99299.41;4952192;28;100134;-78
2023/10/28 02:11:48;;;;;;;8.35;5.93;;;;;;;15.37;74.81;99304.66;4945997;28;101122;-78
2023/10/28 02:14:15;;;;;;;9.25;6.57;;;;;;;15.50;74.25;99298.28;4953214;28;96685;-77
2023/10/28 02:16:42;;;;;;;11.15;6.75;;;;;;;15.70;73.97;99302.06;4948410;28;97274;-77
2023/10/28 02:19:09;;;;;;;11.88;6.20;;;;;;;15.69;73.62;99304.84;4952432;28;98932;-77
2023/10/28 02:21:35;;;;;;;9.38;5.97;;;;;;;15.74;73.66;99302.69;4953326;28;98827;-77
2023/10/28 02:24:03;;;;;;;9.48;5.88;;;;;;;15.51;74.91;99307.94;4952868;28;96795;-77
2023/10/28 02:26:29;;;;;;;10.02;5.82;;;;;;;15.59;74.29;99304.72;4950571;28;97097;-78
2023/10/28 02:28:55;;;;;;;7.00;5.32;;;;;;;15.56;73.88;99298.81;4950739;28;98913;-77
2023/10/28 02:31:23;;;;;;;8.40;5.55;;;;;;;15.39;74.97;99305.41;4957374;28;99704;-77
2023/10/28 02:33:50;;;;;;;6.82;5.13;;;;;;;15.58;74.42;99312.81;4954891;28;96970;-78
2023/10/28 02:36:17;;;;;;;6.38;5.05;;;;;;;15.56;74.37;99309.47;4951459;28;96790;-77
2023/10/28 02:38:43;;;;;;;6.85;4.80;;;;;;;15.61;74.30;99313.44;4957731;28;98580;-78
2023/10/28 02:41:10;;;;;;;6.78;4.90;;;;;;;15.59;74.21;99312.72;4952770;28;99409;-77
2023/10/28 02:43:36;;;;;;;6.97;5.32;;;;;;;15.66;73.68;99321.06;4952418;28;96620;-78
2023/10/28 02:46:03;;;;;;;6.43;4.30;;;;;;;15.61;73.83;99321.44;4950214;28;97011;-78
2023/10/28 02:48:31;;;;;;;7.32;4.93;;;;;;;15.56;74.58;99318.25;4949482;28;98294;-78
2023/10/28 02:51:03;;;;;;;6.82;4.88;;;;;;;15.57;73.93;99311.13;4950448;28;99141;-78
2023/10/28 02:53:29;;;;;;;6.45;5.00;;;;;;;15.47;74.45;99316.31;4953592;28;96731;-78
2023/10/28 02:55:56;;;;;;;6.90;4.82;;;;;;;15.39;74.55;99316.91;4952833;28;97165;-78
2023/10/28 02:58:22;;;;;;;5.80;4.65;;;;;;;15.51;74.55;99318.59;4952449;28;98934;-78
2023/10/28 03:00:49;;;;;;;6.90;4.88;;;;;;;15.65;73.92;99316.72;4953146;28;98812;-78
2023/10/28 03:03:15;;;;;;;6.07;4.22;;;;;;;15.58;73.78;99320.81;4953013;28;96813;-78
2023/10/28 03:05:43;;;;;;;5.95;3.92;;;;;;;15.57;73.42;99322.63;4952404;28;97819;-78
2023/10/28 03:08:09;;;;;;;5.57;4.45;;;;;;;15.24;74.77;99320.75;4952131;28;99224;-78
2023/10/28 03:10:36;;;;;;;5.45;4.30;;;;;;;15.50;74.46;99322.22;4945495;28;99339;-78
2023/10/28 03:13:02;;;;;;;5.95;4.40;;;;;;;15.63;74.05;99322.16;4953252;28;100533;-78
2023/10/28 03:15:28;;;;;;;5.20;4.15;;;;;;;15.56;74.58;99320.94;4951177;28;98840;-78
2023/10/28 03:17:55;;;;;;;4.97;3.85;;;;;;;15.44;74.50;99321.84;4951825;28;100960;-77
2023/10/28 03:20:21;;;;;;;4.82;3.88;;;;;;;15.44;74.82;99327.19;4949376;28;98247;-78
2023/10/28 03:22:49;;;;;;;5.15;4.38;;;;;;;15.37;75.05;99329.47;4950804;28;97457;-77
2023/10/28 03:25:16;;;;;;;5.55;4.22;;;;;;;15.37;74.91;99324.16;4951266;28;97017;-77
2023/10/28 03:27:42;;;;;;;3.95;3.55;;;;;;;15.30;75.06;99333.56;4948856;28;98831;-77
2023/10/28 03:30:10;;;;;;;4.22;3.70;;;;;;;15.39;74.71;99338.19;4947562;28;99247;-77
2023/10/28 03:32:36;;;;;;;5.97;4.13;;;;;;;15.53;74.13;99332.69;4949213;28;97519;-77
2023/10/28 03:35:03;;;;;;;4.43;4.03;;;;;;;15.42;74.49;99340.63;4951827;28;96811;-77
2023/10/28 03:37:31;;;;;;;5.28;3.30;;;;;;;15.49;74.35;99346.31;4949778;28;100729;-77
2023/10/28 03:39:59;;;;;;;4.22;3.83;;;;;;;15.43;74.50;99341.44;4950705;28;101434;-77
2023/10/28 03:42:27;;;;;;;5.32;3.67;;;;;;;15.28;74.89;99354.16;4948855;28;96730;-77
2023/10/28 03:44:52;;;;;;;3.83;3.40;;;;;;;15.59;74.16;99347.31;4948278;28;96773;-77
2023/10/28 03:47:19;;;;;;;;;;;;;;;15.47;74.36;99345.59;4950737;28;98752;-78
2023/10/28 03:49:45;;;;;;;6.50;4.00;;;;;;;15.49;74.59;99343.66;4952152;28;99330;-77
2023/10/28 03:52:11;;;;;;;4.43;3.50;;;;;;;15.51;74.88;99347.03;4950581;28;97072;-77
2023/10/28 03:54:38;;;;;;;4.45;3.75;;;;;;;15.58;74.27;99350.09;4951586;28;96998;-77
2023/10/28 03:57:06;;;;;;;4.15;3.53;;;;;;;15.57;74.41;99359.06;4950779;28;98949;-77
2023/10/28 03:59:33;;;;;;;4.55;3.63;;;;;;;15.53;75.17;99356.66;4946242;28;98837;-77
2023/10/28 04:02:00;;;;;;;4.70;3.55;;;;;;;15.71;74.58;99361.50;4950220;28;96718;-77
2023/10/28 04:04:26;;;;;;;3.40;2.90;;;;;;;15.46;74.82;99371.38;4943578;28;96934;-77
2023/10/28 04:06:55;;;;;;;3.60;2.67;;;;;;;15.44;74.69;99365.28;4942898;28;98984;-77
2023/10/28 04:09:21;;;;;;;3.08;2.53;;;;;;;15.58;74.52;99358.94;4941405;28;98856;-78
2023/10/28 04:11:47;;;;;;;3.53;2.67;;;;;;;15.63;73.70;99366.56;4951076;28;97230;-77
2023/10/28 04:14:16;;;;;;;2.80;2.45;;;;;;;15.54;73.76;99371.66;4950811;28;96771;-77
2023/10/28 04:16:42;;;;;;;3.42;3.10;;;;;;;15.40;74.44;99357.69;4949552;28;99835;-77
2023/10/28 04:19:09;;;;;;;5.35;2.78;;;;;;;15.61;73.47;99355.19;4951910;28;98907;-77
2023/10/28 04:21:35;;;;;;;4.18;2.80;;;;;;;15.62;73.10;99363.03;4952470;28;97111;-77
2023/10/28 04:24:02;;;;;;;3.45;2.75;;;;;;;15.70;73.15;99373.09;4951971;28;96860;-78
2023/10/28 04:26:28;;;;;;;2.85;2.45;;;;;;;15.28;74.81;99370.13;4950931;28;99256;-77
2023/10/28 04:28:59;;;;;;;5.43;2.42;;;;;;;15.20;74.46;99367.19;4955399;28;99405;-77
2023/10/28 04:31:27;;;;;;;3.00;2.67;;;;;;;15.16;75.43;99377.19;4943235;28;98814;-78
2023/10/28 04:33:54;;;;;;;2.08;1.90;;;;;;;15.38;74.20;99381.75;4952164;28;97342;-77
2023/10/28 04:36:20;;;;;;;3.92;2.20;;;;;;;15.45;73.47;99390.09;4949722;28;98997;-77
2023/10/28 04:38:47;;;;;;;1.83;1.70;;;;;;;15.32;74.53;99389.34;4951041;28;97650;-78
2023/10/28 04:41:13;;;;;;;3.08;2.15;;;;;;;15.46;73.68;99384.66;4951190;28;97036;-77
2023/10/28 04:43:40;;;;;;;2.33;2.13;;;;;;;15.52;73.63;99388.66;4952878;28;96779;-79
2023/10/28 04:46:06;;;;;;;2.65;2.25;;;;;;;15.48;73.35;99392.53;4964784;28;101160;-79
2023/10/28 04:48:34;;;;;;;1.98;1.77;;;;;;;15.48;72.89;99388.06;4964344;28;98060;-80
2023/10/28 04:51:02;;;;;;;2.00;1.80;;;;;;;15.56;72.83;99389.34;4959488;28;97888;-80
2023/10/28 04:53:28;;;;;;;3.17;1.73;;;;;;;15.41;72.72;99386.84;4961771;28;96824;-79
2023/10/28 04:55:56;;;;;;;1.73;1.63;;;;;;;15.40;72.72;99386.97;4951995;28;99879;-78
2023/10/28 04:58:24;;;;;;;3.38;1.70;;;;;;;15.42;72.84;99388.53;4951022;28;98633;-79
2023/10/28 05:00:50;;;;;;;2.47;2.22;;;;;;;15.42;73.36;99393.88;4951193;28;96816;-79
2023/10/28 05:03:16;;;;;;;2.95;2.10;;;;;;;15.37;74.01;99395.16;4950890;28;96822;-79
2023/10/28 05:05:46;;;;;;;2.65;2.20;;;;;;;15.46;72.70;99387.34;4950406;28;98404;-80
2023/10/28 05:08:13;;;;;;;2.70;2.47;;;;;;;15.40;73.19;99393.13;4948131;28;98912;-79
2023/10/28 05:10:41;;;;;;;2.65;2.10;;;;;;;15.50;72.40;99398.56;4945769;28;96730;-79
2023/10/28 05:13:10;;;;;;;2.55;2.25;;;;;;;15.36;72.52;99401.47;4948527;28;97513;-79
2023/10/28 05:15:36;;;;;;;2.40;2.17;;;;;;;15.49;72.31;99413.69;4949856;28;101313;-79
2023/10/28 05:18:03;;;;;;;2.30;2.10;;;;;;;15.30;72.92;99415.22;4948126;28;99606;-80
2023/10/28 05:20:33;;;;;;;2.33;2.13;;;;;;;15.31;73.27;99422.25;4952011;28;96738;-79
2023/10/28 05:23:00;;;;;;;2.33;2.13;;;;;;;15.16;73.78;99425.09;4954048;28;96844;-79
2023/10/28 05:25:27;;;;;;;2.38;2.17;;;;;;;15.31;73.49;99422.25;4949370;28;101498;-79
2023/10/28 05:27:53;;;;;;;3.25;2.35;;;;;;;15.39;72.92;99427.84;4952754;28;98865;-79
2023/10/28 05:30:20;;;;;;;3.40;2.20;;;;;;;15.45;72.71;99435.34;4948854;28;97182;-79
2023/10/28 05:32:46;;;;;;;2.45;2.25;;;;;;;15.31;73.08;99433.75;4951171;28;96923;-79
2023/10/28 05:35:13;;;;;;;2.55;2.35;;;;;;;15.39;72.84;99433.16;4949387;28;101313;-78
2023/10/28 05:37:39;;;;;;;3.08;2.53;;;;;;;15.46;72.52;99431.72;4949396;28;98764;-77
2023/10/28 05:40:10;;;;;;;2.45;2.20;;;;;;;15.38;72.68;99428.81;4955446;28;98315;-78
2023/10/28 05:42:36;;;;;;;2.35;2.15;;;;;;;15.28;72.52;99436.66;4953579;28;96897;-78
2023/10/28 05:45:03;;;;;;;3.17;2.78;;;;;;;15.30;73.23;99436.50;4949990;28;99313;-79
2023/10/28 05:47:29;;;;;;;3.03;2.60;;;;;;;15.44;73.24;99439.84;4942359;28;98882;-79
2023/10/28 05:49:57;;;;;;;4.72;2.65;;;;;;;15.41;73.24;99434.75;4949158;28;97983;-79
2023/10/28 05:52:23;;;;;;;5.47;3.38;;;;;;;15.41;73.07;99445.41;4952126;28;96843;-78
2023/10/28 05:54:50;;;;;;;3.28;2.97;;;;;;;15.26;74.32;99438.56;4953655;28;99825;-80
2023/10/28 05:57:18;;;;;;;3.28;2.97;;;;;;;15.22;73.63;99447.75;4950859;28;98809;-79
2023/10/28 05:59:44;;;;;;;3.70;3.22;;;;;;;15.09;74.55;99453.16;4950255;28;97180;-79
2023/10/28 06:02:11;;;;;;;3.72;3.17;;;;;;;15.24;74.36;99459.13;4946424;28;97257;-80
2023/10/28 06:04:38;;;;;;;5.70;3.63;;;;;;;15.08;74.48;99461.25;4948426;28;99314;-80
2023/10/28 06:07:04;;;;;;;5.50;2.83;;;;;;;15.31;73.83;99471.00;4951438;28;101200;-80
2023/10/28 06:09:33;;;;;;;4.90;3.70;;;;;;;15.08;74.25;99474.53;4949432;28;97718;-79
2023/10/28 06:12:00;;;;;;;4.30;3.28;;;;;;;15.30;73.94;99474.63;4960126;28;96773;-79
2023/10/28 06:14:28;;;;;;;4.30;3.65;;;;;;;15.34;73.27;99465.47;4957850;28;99536;-79
2023/10/28 06:16:55;;;;;;;4.95;3.53;;;;;;;15.43;71.84;99472.72;4950339;28;99384;-80
2023/10/28 06:19:23;;;;;;;4.32;3.60;;;;;;;15.34;72.04;99475.25;4950593;28;96870;-81
2023/10/28 06:21:51;;;;;;;7.25;3.75;;;;;;;15.41;72.13;99474.69;4953725;28;96820;-79
2023/10/28 06:24:18;;;;;;;5.15;3.78;;;;;;;15.28;72.16;99476.56;4952844;28;99530;-80
2023/10/28 06:26:45;;;;;;;4.90;3.80;;;;;;;15.23;72.53;99488.53;4949241;28;101613;-79
2023/10/28 06:29:12;;;;;;;4.07;3.35;;;;;;;15.06;73.64;99489.75;4955390;28;98811;-79
2023/10/28 06:31:40;;;;;;;4.72;3.45;;;;;;;15.33;71.99;99479.72;4959197;28;97429;-79
2023/10/28 06:34:06;;;;;;;4.60;3.70;;;;;;;15.27;72.48;99476.69;4956844;28;98873;-79
2023/10/28 06:36:33;;;;;;;4.45;3.67;;;;;;;15.23;72.42;99496.50;4951072;28;98799;-80
2023/10/28 06:39:00;;;;;;;4.68;3.88;;;;;;;15.14;72.58;99503.34;4946472;28;97013;-79
2023/10/28 06:41:26;;;;;;;4.82;3.38;;;;;;;15.19;72.71;99511.84;4943351;28;96768;-79
2023/10/28 06:43:53;;;;;;;4.38;3.65;;;;;;;15.02;72.56;99510.44;4946263;28;98896;-79
2023/10/28 06:46:20;;;;;;;7.18;4.00;;;;;;;15.16;73.11;99515.56;4950086;28;99062;-79
2023/10/28 06:48:48;;;;;;;5.57;3.90;;;;;;;15.48;72.29;99526.50;4939761;28;96860;-79
2023/10/28 06:51:15;;;;;;;7.80;5.47;;;;;;;15.47;71.99;99529.28;4955671;28;96835;-80
2023/10/28 06:53:42;;;;;;;5.97;4.28;;;;;;;15.16;72.43;99531.53;4954712;28;98032;-79
2023/10/28 06:56:09;;;;;;;5.20;4.32;;;;;;;15.04;73.31;99537.75;4952959;28;99708;-79
2023/10/28 06:58:35;;;;;;;7.55;4.57;;;;;;;15.23;73.53;99544.41;4946150;28;98222;-79
2023/10/28 07:01:02;;;;;;;5.00;4.20;;;;;;;15.12;73.42;99551.34;4946872;28;96993;-80
2023/10/28 07:03:29;;;;;;;4.95;3.88;;;;;;;15.17;72.95;99553.66;4943262;28;101132;-80
2023/10/28 07:05:57;;;;;;;4.85;4.30;;;;;;;14.72;74.27;99553.38;4944067;28;97797;-80
2023/10/28 07:08:24;;;;;;;4.82;4.15;;;;;;;15.23;73.34;99563.84;4948234;28;96811;-80
2023/10/28 07:10:51;;;;;;;4.57;4.18;;;;;;;15.28;73.46;99560.88;4950676;28;96861;-80
2023/10/28 07:13:18;;;;;;;5.88;4.68;;;;;;;15.16;72.89;99562.63;4960481;28;98075;-78
2023/10/28 07:15:44;;;;;;;6.70;4.50;;;;;;;15.14;73.39;99575.19;4947964;28;97961;-78
2023/10/28 07:18:10;;;;;;;5.75;4.90;;;;;;;15.46;72.64;99573.69;4948142;28;96713;-78
2023/10/28 07:20:37;;;;;;;7.03;5.05;;;;;;;15.33;71.83;99572.03;4945569;28;97158;-79
2023/10/28 07:23:05;;;;;;;5.70;4.63;;;;;;;15.15;73.08;99574.22;4942721;28;96801;-78
2023/10/28 07:25:31;;;;;;;6.32;5.15;;;;;;;15.39;72.57;99582.22;4946439;28;98898;-78
2023/10/28 07:27:58;;;;;;;6.60;5.40;;;;;;;15.05;73.41;99581.16;4948020;28;96785;-78
2023/10/28 07:30:24;;;;;;;5.85;4.95;;;;;;;14.85;75.16;99589.72;4957459;28;97321;-79
2023/10/28 07:32:54;;;;;;;5.78;5.10;;;;;;;15.11;73.89;99588.69;4947898;28;98984;-79
2023/10/28 07:35:23;;;;;;;6.07;5.30;;;;;;;15.11;74.20;99586.03;4942660;28;100753;-77
2023/10/28 07:37:49;;;;;;;7.13;5.47;;;;;;;15.19;73.82;99599.66;4938529;28;97867;-77
2023/10/28 07:40:17;;;;;;;7.65;5.18;;;;;;;15.12;74.22;99595.72;4947021;28;96867;-78
2023/10/28 07:42:44;;;;;;;8.10;5.28;;;;;;;15.32;73.47;99594.28;4943745;28;99282;-78
2023/10/28 07:45:11;;;;;;;6.63;5.60;;;;;;;15.51;73.20;99606.13;4947519;28;99026;-78
2023/10/28 07:47:37;;;;;;;6.70;5.55;;;;;;;15.76;72.52;99601.66;4951569;28;96768;-77
2023/10/28 07:50:04;;;;;;;6.55;5.70;;;;;;;15.37;72.72;99603.63;4954352;28;96853;-78
2023/10/28 07:52:30;;;;;;;6.35;5.25;;;;;;;15.57;72.78;99604.00;4951515;28;99293;-78
2023/10/28 07:54:57;;;;;;;7.35;5.60;;;;;;;15.53;72.92;99604.25;4952495;28;98840;-79
2023/10/28 07:57:25;;;;;;;7.35;5.53;;;;;;;15.66;72.93;99619.31;4951888;28;96742;-78
2023/10/28 07:59:52;;;;;;;6.60;5.75;;;;;;;15.48;73.51;99616.16;4951289;28;97034;-78
2023/10/28 08:02:19;;;;;;;7.80;5.50;;;;;;;15.45;72.00;99622.56;4949722;28;98944;-78
2023/10/28 08:04:46;;;;;;;5.88;5.30;;;;;;;15.28;73.60;99620.28;4952303;28;98936;-78
2023/10/28 08:07:14;;;;;;;5.60;5.07;;;;;;;15.80;72.31;99633.31;4952560;28;97087;-78
2023/10/28 08:09:40;;;;;;;8.68;5.60;;;;;;;15.54;72.57;99635.22;4953648;28;96939;-79
2023/10/28 08:12:07;;;;;;;6.32;5.57;;;;;;;15.70;72.16;99634.09;4952305;28;98888;-78
2023/10/28 08:14:35;;;;;;;6.03;5.43;;;;;;;15.78;72.61;99639.69;4952581;28;99099;-77
2023/10/28 08:17:02;;;;;;;6.75;6.05;;;;;;;16.03;71.36;99636.91;4954895;28;98402;-77
2023/10/28 08:19:29;;;;;;;10.75;7.13;;;;;;;16.26;70.00;99641.34;4952939;28;96756;-77
2023/10/28 08:21:55;;;;;;;8.98;7.72;;;;;;;16.09;69.93;99640.91;4952715;28;98932;-77
2023/10/28 08:24:23;;;;;;;8.90;7.00;;;;;;;16.27;69.47;99642.19;4953106;28;99542;-77
2023/10/28 08:26:49;;;;;;;8.40;7.10;;;;;;;16.13;70.17;99640.59;4953275;28;96824;-78
2023/10/28 08:29:15;;;;;;;11.05;7.97;;;;;;;16.21;70.53;99648.81;4953175;28;97346;-78
2023/10/28 08:31:43;;;;;;;9.68;8.40;;;;;;;16.28;70.09;99650.06;4953086;28;98954;-78
2023/10/28 08:34:10;;;;;;;10.65;8.23;;;;;;;16.53;68.96;99653.53;4957842;28;99231;-78
2023/10/28 08:36:36;;;;;;;9.88;8.40;;;;;;;16.37;69.46;99653.84;4957035;28;96813;-78
2023/10/28 08:39:04;;;;;;;10.55;8.55;;;;;;;16.37;68.95;99650.31;4953501;28;96938;-79
2023/10/28 08:41:31;;;;;;;11.10;8.52;;;;;;;16.52;68.75;99647.34;4951863;28;98923;-78
2023/10/28 08:43:59;;;;;;;10.52;7.90;;;;;;;16.77;68.52;99661.47;4951921;28;99082;-78
2023/10/28 08:46:25;;;;;;;9.82;8.77;;;;;;;16.72;68.40;99669.84;4953627;28;96692;-78
2023/10/28 08:48:57;;;;;;;10.63;8.43;;;;;;;16.70;67.67;99669.94;4959311;28;96889;-78
2023/10/28 08:51:23;;;;;;;11.48;7.95;;;;;;;16.65;67.44;99674.78;4951769;28;101128;-78
2023/10/28 08:53:55;;;;;;;10.45;8.23;;;;;;;16.48;67.99;99677.88;4953589;28;99828;-77
2023/10/28 08:56:25;;;;;;;12.73;8.82;;;;;;;16.55;68.27;99679.09;4953483;28;96898;-77
2023/10/28 08:58:52;;;;;;;10.50;8.40;;;;;;;16.53;68.90;99690.88;4946537;28;96773;-77
2023/10/28 09:01:22;;;;;;;12.48;9.70;;;;;;;16.43;69.23;99696.03;4953646;28;102408;-77
2023/10/28 09:03:55;;;;;;;15.48;9.02;;;;;;;16.18;68.41;99698.84;4952007;28;99428;-77
2023/10/28 09:06:22;;;;;;;11.18;8.90;;;;;;;16.58;68.21;99692.22;4950907;28;96868;-77
2023/10/28 09:08:49;;;;;;;14.00;9.63;;;;;;;17.02;67.07;99698.59;4951794;28;96796;-78
2023/10/28 09:11:16;;;;;;;11.65;9.05;;;;;;;16.67;66.94;99699.50;4949381;28;99499;-77
2023/10/28 09:13:45;;;;;;;13.40;9.18;;;;;;;16.60;67.29;99700.97;4950995;28;98728;-78
2023/10/28 09:16:11;;;;;;;12.30;9.07;;;;;;;16.88;66.70;99707.69;4950818;28;97133;-78
2023/10/28 09:18:39;;;;;;;12.88;9.45;;;;;;;16.68;67.29;99711.88;4950660;28;96947;-78
2023/10/28 09:21:09;;;;;;;13.80;9.05;;;;;;;16.42;68.42;99713.00;4951635;28;100081;-79
2023/10/28 09:23:35;;;;;;;14.68;9.38;;;;;;;16.13;69.69;99720.53;4950945;28;99491;-78
2023/10/28 09:26:07;;;;;;;12.20;9.02;;;;;;;16.31;69.30;99729.81;4953725;28;96748;-77
2023/10/28 09:28:34;;;;;;;12.25;8.45;;;;;;;16.23;69.17;99736.66;4954199;28;96839;-77
2023/10/28 09:31:01;;;;;;;10.68;8.40;;;;;;;16.42;69.33;99726.31;4951215;28;101350;-77
2023/10/28 09:33:28;;;;;;;12.52;9.23;;;;;;;16.18;70.14;99737.03;4951961;28;98128;-78
2023/10/28 09:35:55;;;;;;;12.43;9.18;;;;;;;16.67;68.85;99738.69;4950882;28;98111;-78
2023/10/28 09:38:23;;;;;;;12.10;9.35;;;;;;;16.52;68.72;99740.69;4951564;28;97080;-77
2023/10/28 09:40:50;;;;;;;14.40;9.23;;;;;;;16.85;68.42;99739.09;4951008;28;98994;-79
2023/10/28 09:43:16;;;;;;;11.48;8.70;;;;;;;17.04;67.17;99734.88;4950894;28;99024;-77
2023/10/28 09:45:47;;;;;;;11.98;9.13;;;;;;;17.14;66.79;99733.19;4949999;28;96797;-77
2023/10/28 09:48:17;;;;;;;15.18;10.50;;;;;;;17.30;65.46;99729.31;4952330;28;96934;-77
2023/10/28 09:50:48;;;;;;;13.40;9.70;;;;;;;17.60;64.72;99726.84;4947818;28;99863;-78
2023/10/28 09:53:16;;;;;;;13.55;9.57;;;;;;;17.53;65.33;99733.66;4950460;28;101353;-77
2023/10/28 09:55:46;;;;;;;13.13;9.07;;;;;;;17.73;64.96;99737.44;4949175;28;96822;-78
2023/10/28 09:58:19;;;;;;;12.98;9.80;;;;;;;17.68;64.52;99735.13;4950429;28;96712;-78
2023/10/28 10:00:49;;;;;;;14.90;9.70;;;;;;;17.83;64.28;99727.72;4950014;28;99142;-77
2023/10/28 10:03:28;;;;;;;11.55;9.20;;;;;;;18.24;62.75;99732.34;4950603;28;100693;-78
2023/10/28 10:05:55;;;;;;;12.80;9.70;;;;;;;17.81;63.02;99730.50;4943217;28;96869;-78
2023/10/28 10:08:23;;;;;;;11.50;9.68;;;;;;;18.29;62.51;99730.13;4950385;28;96746;-77
2023/10/28 10:10:52;;;;;;;10.50;8.57;;;;;;;18.50;61.54;99735.50;4949718;28;99222;-76
2023/10/28 10:13:19;;;;;;;9.85;8.50;;;;;;;18.73;60.70;99733.56;4950203;28;99238;-77
2023/10/28 10:15:54;;;;;;;12.52;8.85;;;;;;;18.18;61.71;99736.34;4948206;28;96802;-78
2023/10/28 10:18:31;;;;;;;10.55;9.15;;;;;;;18.54;59.55;99735.09;4949498;28;96940;-77
2023/10/28 10:21:05;;;;;;;11.18;8.32;;;;;;;18.51;59.90;99737.22;4944847;28;98646;-77
2023/10/28 10:23:41;;;;;;;11.88;7.97;;;;;;;18.51;60.87;99723.84;4949447;28;99282;-78
2023/10/28 10:26:20;;;;;;;9.98;8.32;;;;;;;18.44;60.37;99728.84;4949536;28;96694;-77
2023/10/28 10:28:47;;;;;;;10.82;8.35;;;;;;;18.21;61.76;99721.88;4955503;28;97659;-77
2023/10/28 10:31:13;;;;;;;10.70;8.35;;;;;;;17.98;62.62;99725.63;4945941;28;99094;-78
2023/10/28 10:33:40;;;;;;;9.60;7.75;;;;;;;18.20;62.07;99722.84;4945566;28;99147;-77
2023/10/28 10:36:15;;;;;;;9.85;8.20;;;;;;;18.14;63.73;99731.38;4954653;28;96989;-77
2023/10/28 10:38:42;;;;;;;10.57;8.40;;;;;;;18.15;61.93;99725.06;4963816;28;96780;-78
2023/10/28 10:41:10;;;;;;;12.93;8.98;;;;;;;18.52;60.65;99730.84;4952244;28;99011;-78
2023/10/28 10:43:38;;;;;;;9.27;8.13;;;;;;;18.42;61.11;99736.16;4954632;28;97546;-78
2023/10/28 10:46:06;;;;;;;11.48;7.90;;;;;;;18.38;60.72;99742.72;4952491;28;97855;-77
2023/10/28 10:48:33;;;;;;;9.20;8.23;;;;;;;18.25;61.27;99742.88;4948904;28;96944;-78
2023/10/28 10:51:02;;;;;;;11.07;8.30;;;;;;;17.73;62.99;99734.75;4946749;28;98966;-78
2023/10/28 10:53:28;;;;;;;11.05;8.55;;;;;;;18.06;62.83;99749.88;4946931;28;97792;-78
2023/10/28 10:55:55;;;;;;;12.27;9.13;;;;;;;17.74;64.27;99744.47;4941144;28;96830;-78
2023/10/28 10:58:23;;;;;;;12.75;8.88;;;;;;;18.00;64.33;99734.34;4949593;28;96884;-78
2023/10/28 11:00:54;;;;;;;11.35;8.73;;;;;;;18.06;63.17;99745.38;4949429;28;99916;-78
2023/10/28 11:03:24;;;;;;;11.95;9.35;;;;;;;18.07;62.90;99748.91;4953704;28;99561;-78
2023/10/28 11:05:52;;;;;;;11.30;8.73;;;;;;;18.16;63.55;99750.81;4965556;28;96704;-78
2023/10/28 11:08:19;;;;;;;9.75;8.65;;;;;;;18.15;62.09;99739.28;4949398;28;96813;-78
2023/10/28 11:10:46;;;;;;;10.20;8.43;;;;;;;18.46;61.22;99747.41;4948842;28;97688;-78
2023/10/28 11:13:13;;;;;;;11.43;8.65;;;;;;;18.57;62.01;99748.28;4949438;28;99255;-79
2023/10/28 11:15:41;;;;;;;11.73;9.35;;;;;;;18.81;60.51;99756.03;4950339;28;96799;-78
2023/10/28 11:18:08;;;;;;;11.20;8.63;;;;;;;18.71;61.05;99757.78;4956513;28;97143;-77
2023/10/28 11:20:35;;;;;;;10.80;8.88;;;;;;;18.61;61.02;99764.91;4952995;28;98955;-79
2023/10/28 11:23:02;;;;;;;10.05;8.30;;;;;;;18.64;60.61;99760.13;4952842;28;101604;-79
2023/10/28 11:25:32;;;;;;;12.57;9.55;;;;;;;18.61;60.38;99754.19;4953079;28;96879;-78
2023/10/28 11:28:05;;;;;;;9.75;8.50;;;;;;;18.53;60.73;99753.97;4952895;28;98139;-78
2023/10/28 11:30:31;;;;;;;9.45;8.32;;;;;;;18.21;62.04;99751.28;4952104;28;98894;-78